createdAt,value
2023-04-08T00:00:52.147Z,6.69
2023-04-08T00:01:51.458Z,6.68
2023-04-08T00:02:51.451Z,6.68
2023-04-08T00:03:51.449Z,6.68
2023-04-08T00:04:51.406Z,6.68
2023-04-08T00:05:51.338Z,6.68
2023-04-08T00:06:51.299Z,6.68
2023-04-08T00:07:51.326Z,6.68
2023-04-08T00:08:51.445Z,6.68
2023-04-08T00:09:51.294Z,6.67
2023-04-08T00:10:51.287Z,6.67
2023-04-08T00:11:51.013Z,6.67
2023-04-08T00:12:51.237Z,6.67
2023-04-08T00:13:51.238Z,6.68
2023-04-08T00:14:50.540Z,6.69
2023-04-08T00:15:51.197Z,6.69
2023-04-08T00:16:51.195Z,6.68
2023-04-08T00:17:51.941Z,6.68
2023-04-08T00:18:51.392Z,6.67
2023-04-08T00:19:51.163Z,6.66
2023-04-08T00:20:51.128Z,6.64
2023-04-08T00:21:51.097Z,6.64
2023-04-08T00:22:50.788Z,6.63
2023-04-08T00:23:51.088Z,6.62
2023-04-08T00:24:51.073Z,6.61
2023-04-08T00:25:50.866Z,6.60
2023-04-08T00:26:51.028Z,6.59
2023-04-08T00:27:51.051Z,6.58
2023-04-08T00:28:51.200Z,6.58
2023-04-08T00:29:51.684Z,6.58
2023-04-08T00:30:50.907Z,6.59
2023-04-08T00:31:50.962Z,6.59
2023-04-08T00:32:50.999Z,6.58
2023-04-08T00:33:51.688Z,6.58
2023-04-08T00:34:51.677Z,6.57
2023-04-08T00:35:51.694Z,6.57
2023-04-08T00:36:51.637Z,6.56
2023-04-08T00:37:51.628Z,6.55
2023-04-08T00:38:51.649Z,6.54
2023-04-08T00:39:51.587Z,6.53
2023-04-08T00:40:51.589Z,6.54
2023-04-08T00:41:51.574Z,6.55
2023-04-08T00:42:51.552Z,6.55
2023-04-08T00:43:51.547Z,6.55
2023-04-08T00:44:51.032Z,6.56
2023-04-08T00:45:50.788Z,6.57
2023-04-08T00:46:50.766Z,6.59
2023-04-08T00:47:50.802Z,6.61
2023-04-08T00:48:50.914Z,6.62
2023-04-08T00:49:50.760Z,6.62
2023-04-08T00:50:50.721Z,6.61
2023-04-08T00:51:50.756Z,6.60
2023-04-08T00:52:50.704Z,6.60
2023-04-08T00:53:50.683Z,6.60
2023-04-08T00:54:51.373Z,6.60
2023-04-08T00:55:50.659Z,6.60
2023-04-08T00:56:50.644Z,6.59
2023-04-08T00:57:50.645Z,6.59
2023-04-08T00:58:50.806Z,6.59
2023-04-08T00:59:50.598Z,6.59
2023-04-08T01:00:50.600Z,6.59
2023-04-08T01:01:51.311Z,6.60
2023-04-08T01:02:50.753Z,6.60
2023-04-08T01:03:50.604Z,6.61
2023-04-08T01:04:50.530Z,6.62
2023-04-08T01:05:50.524Z,6.62
2023-04-08T01:06:50.508Z,6.62
2023-04-08T01:07:51.172Z,6.62
2023-04-08T01:08:50.680Z,6.62
2023-04-08T01:09:50.470Z,6.63
2023-04-08T01:10:50.452Z,6.63
2023-04-08T01:11:50.418Z,6.63
2023-04-08T01:12:50.665Z,6.62
2023-04-08T01:13:51.087Z,6.62
2023-04-08T01:14:50.414Z,6.61
2023-04-08T01:15:51.112Z,6.61
2023-04-08T01:16:50.349Z,6.60
2023-04-08T01:17:50.409Z,6.60
2023-04-08T01:18:50.194Z,6.59
2023-04-08T01:19:50.329Z,6.58
2023-04-08T01:20:50.319Z,6.57
2023-04-08T01:21:50.281Z,6.56
2023-04-08T01:22:50.972Z,6.54
2023-04-08T01:23:50.978Z,6.54
2023-04-08T01:24:50.956Z,6.53
2023-04-08T01:25:50.930Z,6.52
2023-04-08T01:26:49.597Z,6.52
2023-04-08T01:27:50.220Z,6.51
2023-04-08T01:28:50.372Z,6.51
2023-04-08T01:29:50.918Z,6.51
2023-04-08T01:30:50.208Z,6.51
2023-04-08T01:31:50.168Z,6.51
2023-04-08T01:32:50.174Z,6.51
2023-04-08T01:33:50.142Z,6.51
2023-04-08T01:34:50.127Z,6.52
2023-04-08T01:35:50.833Z,6.54
2023-04-08T01:36:50.788Z,6.56
2023-04-08T01:37:50.064Z,6.58
2023-04-08T01:38:50.196Z,6.60
2023-04-08T01:39:50.065Z,6.61
2023-04-08T01:40:50.053Z,6.63
2023-04-08T01:41:50.073Z,6.64
2023-04-08T01:42:49.999Z,6.65
2023-04-08T01:43:50.691Z,6.65
2023-04-08T01:44:49.991Z,6.65
2023-04-08T01:45:49.986Z,6.66
2023-04-08T01:46:50.787Z,6.67
2023-04-08T01:47:49.962Z,6.67
2023-04-08T01:48:50.193Z,6.67
2023-04-08T01:49:49.934Z,6.68
2023-04-08T01:50:49.966Z,6.67
2023-04-08T01:51:49.948Z,6.67
2023-04-08T01:52:50.590Z,6.67
2023-04-08T01:53:49.878Z,6.67
2023-04-08T01:54:49.887Z,6.68
2023-04-08T01:55:50.532Z,6.69
2023-04-08T01:56:50.522Z,6.69
2023-04-08T01:57:50.059Z,6.69
2023-04-08T01:58:50.747Z,6.69
2023-04-08T01:59:49.793Z,6.69
2023-04-08T02:00:50.464Z,6.70
2023-04-08T02:01:49.866Z,6.70
2023-04-08T02:02:50.218Z,6.70
2023-04-08T02:03:49.800Z,6.71
2023-04-08T02:04:49.868Z,6.71
2023-04-08T02:05:50.381Z,6.72
2023-04-08T02:06:50.381Z,6.72
2023-04-08T02:07:49.696Z,6.73
2023-04-08T02:08:50.061Z,6.74
2023-04-08T02:09:49.653Z,6.76
2023-04-08T02:10:49.652Z,6.77
2023-04-08T02:11:49.639Z,6.77
2023-04-08T02:12:49.602Z,6.77
2023-04-08T02:13:49.618Z,6.78
2023-04-08T02:14:49.597Z,6.79
2023-04-08T02:15:49.655Z,6.79
2023-04-08T02:16:49.590Z,6.79
2023-04-08T02:17:49.617Z,6.79
2023-04-08T02:18:49.704Z,6.78
2023-04-08T02:19:49.543Z,6.78
2023-04-08T02:20:50.199Z,6.78
2023-04-08T02:21:49.493Z,6.78
2023-04-08T02:22:49.465Z,6.78
2023-04-08T02:23:50.132Z,6.78
2023-04-08T02:24:50.123Z,6.78
2023-04-08T02:25:50.169Z,6.78
2023-04-08T02:26:49.472Z,6.78
2023-04-08T02:27:49.145Z,6.78
2023-04-08T02:28:49.614Z,6.78
2023-04-08T02:29:49.148Z,6.78
2023-04-08T02:30:49.142Z,6.78
2023-04-08T02:31:49.220Z,6.78
2023-04-08T02:32:49.192Z,6.78
2023-04-08T02:33:49.336Z,6.77
2023-04-08T02:34:49.312Z,6.76
2023-04-08T02:35:49.312Z,6.76
2023-04-08T02:36:49.294Z,6.75
2023-04-08T02:37:49.298Z,6.75
2023-04-08T02:38:48.826Z,6.74
2023-04-08T02:39:48.651Z,6.74
2023-04-08T02:40:49.253Z,6.73
2023-04-08T02:41:48.721Z,6.73
2023-04-08T02:42:49.964Z,6.73
2023-04-08T02:43:48.778Z,6.73
2023-04-08T02:44:49.872Z,6.73
2023-04-08T02:45:49.183Z,6.73
2023-04-08T02:46:48.867Z,6.72
2023-04-08T02:47:48.924Z,6.72
2023-04-08T02:48:49.188Z,6.72
2023-04-08T02:49:49.125Z,6.72
2023-04-08T02:50:49.109Z,6.73
2023-04-08T02:51:49.771Z,6.73
2023-04-08T02:52:49.078Z,6.73
2023-04-08T02:53:49.033Z,6.73
2023-04-08T02:54:49.729Z,6.73
2023-04-08T02:55:49.752Z,6.73
2023-04-08T02:56:49.738Z,6.72
2023-04-08T02:57:49.755Z,6.73
2023-04-08T02:58:49.857Z,6.72
2023-04-08T02:59:49.695Z,6.71
2023-04-08T03:00:49.750Z,6.71
2023-04-08T03:01:49.066Z,6.71
2023-04-08T03:02:49.887Z,6.72
2023-04-08T03:03:49.739Z,6.71
2023-04-08T03:04:48.911Z,6.71
2023-04-08T03:05:48.896Z,6.71
2023-04-08T03:06:48.881Z,6.70
2023-04-08T03:07:48.911Z,6.70
2023-04-08T03:08:49.743Z,6.68
2023-04-08T03:09:48.840Z,6.67
2023-04-08T03:10:49.057Z,6.66
2023-04-08T03:11:48.167Z,6.64
2023-04-08T03:12:48.796Z,6.63
2023-04-08T03:13:48.761Z,6.62
2023-04-08T03:14:48.812Z,6.61
2023-04-08T03:15:49.434Z,6.60
2023-04-08T03:16:48.788Z,6.59
2023-04-08T03:17:48.764Z,6.58
2023-04-08T03:18:48.908Z,6.58
2023-04-08T03:19:48.710Z,6.59
2023-04-08T03:20:48.697Z,6.60
2023-04-08T03:21:48.686Z,6.61
2023-04-08T03:22:48.669Z,6.62
2023-04-08T03:23:48.619Z,6.63
2023-04-08T03:24:48.650Z,6.63
2023-04-08T03:25:49.288Z,6.65
2023-04-08T03:26:48.612Z,6.66
2023-04-08T03:27:48.600Z,6.67
2023-04-08T03:28:48.779Z,6.68
2023-04-08T03:29:48.627Z,6.69
2023-04-08T03:30:48.563Z,6.70
2023-04-08T03:31:49.211Z,6.70
2023-04-08T03:32:48.784Z,6.71
2023-04-08T03:33:49.189Z,6.71
2023-04-08T03:34:48.501Z,6.72
2023-04-08T03:35:48.526Z,6.72
2023-04-08T03:36:48.472Z,6.73
2023-04-08T03:37:48.460Z,6.73
2023-04-08T03:38:48.587Z,6.73
2023-04-08T03:39:47.696Z,6.74
2023-04-08T03:40:48.419Z,6.74
2023-04-08T03:41:47.704Z,6.75
2023-04-08T03:42:48.388Z,6.75
2023-04-08T03:43:47.694Z,6.75
2023-04-08T03:44:48.371Z,6.75
2023-04-08T03:45:49.045Z,6.74
2023-04-08T03:46:48.329Z,6.75
2023-04-08T03:47:47.772Z,6.75
2023-04-08T03:48:48.675Z,6.76
2023-04-08T03:49:47.691Z,6.77
2023-04-08T03:50:48.289Z,6.77
2023-04-08T03:51:47.693Z,6.78
2023-04-08T03:52:48.247Z,6.78
2023-04-08T03:53:47.700Z,6.79
2023-04-08T03:54:48.246Z,6.78
2023-04-08T03:55:48.209Z,6.78
2023-04-08T03:56:48.218Z,6.78
2023-04-08T03:57:47.696Z,6.77
2023-04-08T03:58:48.198Z,6.77
2023-04-08T03:59:47.715Z,6.77
2023-04-08T04:00:48.149Z,6.77
2023-04-08T04:01:48.232Z,6.76
2023-04-08T04:02:48.192Z,6.75
2023-04-08T04:03:48.879Z,6.75
2023-04-08T04:04:48.114Z,6.74
2023-04-08T04:05:48.076Z,6.74
2023-04-08T04:06:48.064Z,6.73
2023-04-08T04:07:48.043Z,6.73
2023-04-08T04:08:48.291Z,6.73
2023-04-08T04:09:48.013Z,6.72
2023-04-08T04:10:48.005Z,6.72
2023-04-08T04:11:47.994Z,6.72
2023-04-08T04:12:47.974Z,6.72
2023-04-08T04:13:47.951Z,6.71
2023-04-08T04:14:47.962Z,6.70
2023-04-08T04:15:48.660Z,6.69
2023-04-08T04:16:47.943Z,6.69
2023-04-08T04:17:47.939Z,6.68
2023-04-08T04:18:47.952Z,6.68
2023-04-08T04:19:47.894Z,6.68
2023-04-08T04:20:47.864Z,6.67
2023-04-08T04:21:47.860Z,6.68
2023-04-08T04:22:47.858Z,6.68
2023-04-08T04:23:47.805Z,6.67
2023-04-08T04:24:48.501Z,6.67
2023-04-08T04:25:47.886Z,6.67
2023-04-08T04:26:48.470Z,6.67
2023-04-08T04:27:47.791Z,6.67
2023-04-08T04:28:48.819Z,6.66
2023-04-08T04:29:48.419Z,6.66
2023-04-08T04:30:47.789Z,6.66
2023-04-08T04:31:47.713Z,6.66
2023-04-08T04:32:47.744Z,6.66
2023-04-08T04:33:47.685Z,6.66
2023-04-08T04:34:47.718Z,6.67
2023-04-08T04:35:48.364Z,6.67
2023-04-08T04:36:47.656Z,6.67
2023-04-08T04:37:47.631Z,6.66
2023-04-08T04:38:50.082Z,6.66
2023-04-08T04:39:48.328Z,6.67
2023-04-08T04:40:47.603Z,6.67
2023-04-08T04:41:47.591Z,6.68
2023-04-08T04:42:47.572Z,6.68
2023-04-08T04:43:48.237Z,6.68
2023-04-08T04:44:48.288Z,6.68
2023-04-08T04:45:48.196Z,6.68
2023-04-08T04:46:47.594Z,6.69
2023-04-08T04:47:47.284Z,6.69
2023-04-08T04:48:47.607Z,6.69
2023-04-08T04:49:47.239Z,6.70
2023-04-08T04:50:47.229Z,6.70
2023-04-08T04:51:47.242Z,6.71
2023-04-08T04:52:47.447Z,6.72
2023-04-08T04:53:47.239Z,6.72
2023-04-08T04:54:47.386Z,6.72
2023-04-08T04:55:46.676Z,6.71
2023-04-08T04:56:47.377Z,6.71
2023-04-08T04:57:47.364Z,6.71
2023-04-08T04:58:47.370Z,6.71
2023-04-08T04:59:47.321Z,6.72
2023-04-08T05:00:47.323Z,6.72
2023-04-08T05:01:48.248Z,6.71
2023-04-08T05:02:47.457Z,6.71
2023-04-08T05:03:47.326Z,6.70
2023-04-08T05:04:47.282Z,6.70
2023-04-08T05:05:47.255Z,6.70
2023-04-08T05:06:47.251Z,6.70
2023-04-08T05:07:47.245Z,6.69
2023-04-08T05:08:47.283Z,6.70
2023-04-08T05:09:47.189Z,6.69
2023-04-08T05:10:47.003Z,6.69
2023-04-08T05:11:47.184Z,6.68
2023-04-08T05:12:47.897Z,6.68
2023-04-08T05:13:47.163Z,6.68
2023-04-08T05:14:47.123Z,6.68
2023-04-08T05:15:47.151Z,6.69
2023-04-08T05:16:47.856Z,6.69
2023-04-08T05:17:47.908Z,6.68
2023-04-08T05:18:47.925Z,6.68
2023-04-08T05:19:47.834Z,6.68
2023-04-08T05:20:47.788Z,6.68
2023-04-08T05:21:47.769Z,6.68
2023-04-08T05:22:47.049Z,6.69
2023-04-08T05:23:47.027Z,6.69
2023-04-08T05:24:46.984Z,6.70
2023-04-08T05:25:47.013Z,6.71
2023-04-08T05:26:46.984Z,6.72
2023-04-08T05:27:47.039Z,6.72
2023-04-08T05:28:47.760Z,6.72
2023-04-08T05:29:46.925Z,6.72
2023-04-08T05:30:46.926Z,6.73
2023-04-08T05:31:47.032Z,6.73
2023-04-08T05:32:47.648Z,6.73
2023-04-08T05:33:46.887Z,6.73
2023-04-08T05:34:46.857Z,6.73
2023-04-08T05:35:47.607Z,6.73
2023-04-08T05:36:46.844Z,6.73
2023-04-08T05:37:46.835Z,6.74
2023-04-08T05:38:46.827Z,6.75
2023-04-08T05:39:46.790Z,6.76
2023-04-08T05:40:46.801Z,6.77
2023-04-08T05:41:47.460Z,6.79
2023-04-08T05:42:46.782Z,6.80
2023-04-08T05:43:46.762Z,6.81
2023-04-08T05:44:46.716Z,6.82
2023-04-08T05:45:46.753Z,6.83
2023-04-08T05:46:46.816Z,6.84
2023-04-08T05:47:47.410Z,6.85
2023-04-08T05:48:46.735Z,6.86
2023-04-08T05:49:46.667Z,6.86
2023-04-08T05:50:46.669Z,6.86
2023-04-08T05:51:46.648Z,6.85
2023-04-08T05:52:46.705Z,6.85
2023-04-08T05:53:46.648Z,6.86
2023-04-08T05:54:46.593Z,6.87
2023-04-08T05:55:46.609Z,6.88
2023-04-08T05:56:47.272Z,6.89
2023-04-08T05:57:46.562Z,6.91
2023-04-08T05:58:46.553Z,6.93
2023-04-08T05:59:46.511Z,6.92
2023-04-08T06:00:47.248Z,6.92
2023-04-08T06:01:47.271Z,6.91
2023-04-08T06:02:46.609Z,6.92
2023-04-08T06:03:46.590Z,6.93
2023-04-08T06:04:46.591Z,6.95
2023-04-08T06:05:45.822Z,6.97
2023-04-08T06:06:46.442Z,7.01
2023-04-08T06:07:46.432Z,7.02
2023-04-08T06:08:45.815Z,7.03
2023-04-08T06:09:46.379Z,7.06
2023-04-08T06:10:46.384Z,7.10
2023-04-08T06:11:46.385Z,7.13
2023-04-08T06:12:46.357Z,7.16
2023-04-08T06:13:45.809Z,7.19
2023-04-08T06:14:46.313Z,7.23
2023-04-08T06:15:46.313Z,7.25
2023-04-08T06:16:46.310Z,7.28
2023-04-08T06:17:46.342Z,7.31
2023-04-08T06:18:46.281Z,7.34
2023-04-08T06:19:46.955Z,7.35
2023-04-08T06:20:46.271Z,7.37
2023-04-08T06:21:46.232Z,7.39
2023-04-08T06:22:46.216Z,7.42
2023-04-08T06:23:46.213Z,7.46
2023-04-08T06:24:46.163Z,7.50
2023-04-08T06:25:46.185Z,7.54
2023-04-08T06:26:46.173Z,7.58
2023-04-08T06:27:46.144Z,7.61
2023-04-08T06:28:46.399Z,7.61
2023-04-08T06:29:47.081Z,7.60
2023-04-08T06:30:46.794Z,7.63
2023-04-08T06:31:46.138Z,7.66
2023-04-08T06:32:46.116Z,7.68
2023-04-08T06:33:46.745Z,7.70
2023-04-08T06:34:46.046Z,7.75
2023-04-08T06:35:46.845Z,7.80
2023-04-08T06:36:46.026Z,7.85
2023-04-08T06:37:46.737Z,7.90
2023-04-08T06:38:46.005Z,7.96
2023-04-08T06:39:45.969Z,8.01
2023-04-08T06:40:45.980Z,8.05
2023-04-08T06:41:45.964Z,8.07
2023-04-08T06:42:45.944Z,8.10
2023-04-08T06:43:45.936Z,8.10
2023-04-08T06:44:45.894Z,8.10
2023-04-08T06:45:46.001Z,8.10
2023-04-08T06:46:45.903Z,8.12
2023-04-08T06:47:45.894Z,8.14
2023-04-08T06:48:45.874Z,8.20
2023-04-08T06:49:45.824Z,8.24
2023-04-08T06:50:45.839Z,8.25
2023-04-08T06:51:45.826Z,8.26
2023-04-08T06:52:45.807Z,8.27
2023-04-08T06:53:46.518Z,8.31
2023-04-08T06:54:45.816Z,8.38
2023-04-08T06:55:45.766Z,8.40
2023-04-08T06:56:45.777Z,8.44
2023-04-08T06:57:46.428Z,8.49
2023-04-08T06:58:45.723Z,8.54
2023-04-08T06:59:45.709Z,8.58
2023-04-08T07:00:45.715Z,8.62
2023-04-08T07:01:46.489Z,8.62
2023-04-08T07:02:45.913Z,8.65
2023-04-08T07:03:45.809Z,8.73
2023-04-08T07:04:46.865Z,8.80
2023-04-08T07:05:45.636Z,8.85
2023-04-08T07:06:45.351Z,8.93
2023-04-08T07:07:45.605Z,8.98
2023-04-08T07:08:45.349Z,9.03
2023-04-08T07:09:45.338Z,9.08
2023-04-08T07:10:45.291Z,9.09
2023-04-08T07:11:45.556Z,9.15
2023-04-08T07:12:45.355Z,9.21
2023-04-08T07:13:46.195Z,9.29
2023-04-08T07:14:45.358Z,9.35
2023-04-08T07:15:45.517Z,9.41
2023-04-08T07:16:45.456Z,9.44
2023-04-08T07:17:45.367Z,9.47
2023-04-08T07:18:45.361Z,9.48
2023-04-08T07:19:45.439Z,9.52
2023-04-08T07:20:44.821Z,9.55
2023-04-08T07:21:45.418Z,9.56
2023-04-08T07:22:45.423Z,9.59
2023-04-08T07:23:45.392Z,9.65
2023-04-08T07:24:44.665Z,9.69
2023-04-08T07:25:46.105Z,9.74
2023-04-08T07:26:44.869Z,9.80
2023-04-08T07:27:45.339Z,9.85
2023-04-08T07:28:44.914Z,9.89
2023-04-08T07:29:45.288Z,9.94
2023-04-08T07:30:45.379Z,9.96
2023-04-08T07:31:45.969Z,10.01
2023-04-08T07:32:45.074Z,10.06
2023-04-08T07:33:45.293Z,10.08
2023-04-08T07:34:45.221Z,10.13
2023-04-08T07:35:45.943Z,10.12
2023-04-08T07:36:45.225Z,10.18
2023-04-08T07:37:45.197Z,10.20
2023-04-08T07:38:45.912Z,10.26
2023-04-08T07:39:45.149Z,10.28
2023-04-08T07:40:45.875Z,10.38
2023-04-08T07:41:45.147Z,10.46
2023-04-08T07:42:45.140Z,10.55
2023-04-08T07:43:45.795Z,10.61
2023-04-08T07:44:44.399Z,10.59
2023-04-08T07:45:45.172Z,10.55
2023-04-08T07:46:45.080Z,10.62
2023-04-08T07:47:45.097Z,10.75
2023-04-08T07:48:45.103Z,10.86
2023-04-08T07:49:45.016Z,10.92
2023-04-08T07:51:08.480Z,10.94
2023-04-08T07:51:46.008Z,11.03
2023-04-08T07:52:45.668Z,11.06
2023-04-08T07:53:44.993Z,11.05
2023-04-08T07:54:44.967Z,10.99
2023-04-08T07:55:44.945Z,11.03
2023-04-08T07:56:44.997Z,11.06
2023-04-08T07:57:45.597Z,10.94
2023-04-08T07:58:44.933Z,10.87
2023-04-08T07:59:44.909Z,10.88
2023-04-08T08:00:44.297Z,10.97
2023-04-08T08:01:44.899Z,11.00
2023-04-08T08:02:44.955Z,10.95
2023-04-08T08:03:44.945Z,10.99
2023-04-08T08:04:44.924Z,11.00
2023-04-08T08:05:44.833Z,11.06
2023-04-08T08:06:44.804Z,11.11
2023-04-08T08:07:44.827Z,11.04
2023-04-08T08:08:44.795Z,11.00
2023-04-08T08:09:44.767Z,11.09
2023-04-08T08:10:44.735Z,11.25
2023-04-08T08:11:44.742Z,11.30
2023-04-08T08:12:44.729Z,11.31
2023-04-08T08:13:44.709Z,11.29
2023-04-08T08:14:44.242Z,11.27
2023-04-08T08:15:44.705Z,11.40
2023-04-08T08:16:44.908Z,11.80
2023-04-08T08:17:44.753Z,12.04
2023-04-08T08:18:44.639Z,12.23
2023-04-08T08:19:44.628Z,12.42
2023-04-08T08:20:44.597Z,12.57
2023-04-08T08:21:44.599Z,12.61
2023-04-08T08:22:54.479Z,12.70
2023-04-08T08:23:45.593Z,12.77
2023-04-08T08:24:43.838Z,12.84
2023-04-08T08:25:44.541Z,12.88
2023-04-08T08:26:44.550Z,12.82
2023-04-08T08:27:44.627Z,12.73
2023-04-08T08:28:44.012Z,12.64
2023-04-08T08:29:44.518Z,12.62
2023-04-08T08:30:43.758Z,12.67
2023-04-08T08:31:44.535Z,12.67
2023-04-08T08:32:44.492Z,13.03
2023-04-08T08:33:44.447Z,13.25
2023-04-08T08:34:43.972Z,13.10
2023-04-08T08:35:44.430Z,12.87
2023-04-08T08:36:43.940Z,12.67
2023-04-08T08:37:44.381Z,12.60
2023-04-08T08:38:44.405Z,12.70
2023-04-08T08:39:44.359Z,12.72
2023-04-08T08:40:44.322Z,12.79
2023-04-08T08:41:44.342Z,12.83
2023-04-08T08:42:44.320Z,12.79
2023-04-08T08:43:44.297Z,12.68
2023-04-08T08:44:44.298Z,12.81
2023-04-08T08:45:44.244Z,12.93
2023-04-08T08:46:44.334Z,12.92
2023-04-08T08:47:44.272Z,12.96
2023-04-08T08:48:44.239Z,12.88
2023-04-08T08:49:44.217Z,12.93
2023-04-08T08:50:44.195Z,12.84
2023-04-08T08:51:44.192Z,12.71
2023-04-08T08:52:44.188Z,13.13
2023-04-08T08:53:44.166Z,13.48
2023-04-08T08:54:44.165Z,13.45
2023-04-08T08:56:13.479Z,13.29
2023-04-08T08:56:45.130Z,13.19
2023-04-08T08:57:44.117Z,13.48
2023-04-08T08:58:44.787Z,13.53
2023-04-08T08:59:44.088Z,13.54
2023-04-08T09:00:43.347Z,13.51
2023-04-08T09:01:44.151Z,13.31
2023-04-08T09:02:44.231Z,13.04
2023-04-08T09:03:44.236Z,12.93
2023-04-08T09:04:44.158Z,12.85
2023-04-08T09:05:44.065Z,12.79
2023-04-08T09:06:44.665Z,12.69
2023-04-08T09:07:43.978Z,12.69
2023-04-08T09:08:43.230Z,12.66
2023-04-08T09:09:43.949Z,12.62
2023-04-08T09:10:43.948Z,12.62
2023-04-08T09:11:43.944Z,12.64
2023-04-08T09:12:43.911Z,12.66
2023-04-08T09:13:43.887Z,12.63
2023-04-08T09:14:43.898Z,12.71
2023-04-08T09:15:43.838Z,12.87
2023-04-08T09:16:43.307Z,13.01
2023-04-08T09:17:43.865Z,13.31
2023-04-08T09:18:43.860Z,13.68
2023-04-08T09:19:44.043Z,13.76
2023-04-08T09:20:43.772Z,13.82
2023-04-08T09:21:43.790Z,13.72
2023-04-08T09:22:43.767Z,13.65
2023-04-08T09:23:43.782Z,13.70
2023-04-08T09:24:43.014Z,13.87
2023-04-08T09:25:44.460Z,14.02
2023-04-08T09:26:43.717Z,13.91
2023-04-08T09:27:43.480Z,13.84
2023-04-08T09:28:42.969Z,13.79
2023-04-08T09:29:43.699Z,13.77
2023-04-08T09:30:43.186Z,13.64
2023-04-08T09:31:43.700Z,13.74
2023-04-08T09:32:42.928Z,13.89
2023-04-08T09:33:43.475Z,14.42
2023-04-08T09:34:43.488Z,14.64
2023-04-08T09:35:43.604Z,14.66
2023-04-08T09:36:43.593Z,14.53
2023-04-08T09:37:43.571Z,14.36
2023-04-08T09:38:42.822Z,14.27
2023-04-08T09:39:43.535Z,14.50
2023-04-08T09:40:42.840Z,14.31
2023-04-08T09:41:42.906Z,14.04
2023-04-08T09:42:42.967Z,13.78
2023-04-08T09:43:42.987Z,13.60
2023-04-08T09:44:43.026Z,13.68
2023-04-08T09:45:43.471Z,14.39
2023-04-08T09:46:43.449Z,15.24
2023-04-08T09:47:43.470Z,16.07
2023-04-08T09:48:42.704Z,17.02
2023-04-08T09:49:43.507Z,17.77
2023-04-08T09:50:43.379Z,18.52
2023-04-08T09:51:43.350Z,19.03
2023-04-08T09:52:43.372Z,19.36
2023-04-08T09:53:44.073Z,19.21
2023-04-08T09:54:44.051Z,19.33
2023-04-08T09:55:43.318Z,19.06
2023-04-08T09:56:43.321Z,18.79
2023-04-08T09:57:44.018Z,18.63
2023-04-08T09:58:44.006Z,18.76
2023-04-08T09:59:43.269Z,18.92
2023-04-08T10:00:43.292Z,19.28
2023-04-08T10:01:43.268Z,19.59
2023-04-08T10:02:43.410Z,19.28
2023-04-08T10:03:43.271Z,18.67
2023-04-08T10:04:42.489Z,18.06
2023-04-08T10:05:43.196Z,18.21
2023-04-08T10:06:43.160Z,17.85
2023-04-08T10:07:43.217Z,17.14
2023-04-08T10:08:43.159Z,16.52
2023-04-08T10:09:43.177Z,16.16
2023-04-08T10:10:43.142Z,16.28
2023-04-08T10:11:43.087Z,16.42
2023-04-08T10:12:42.506Z,15.93
2023-04-08T10:13:43.080Z,15.50
2023-04-08T10:14:43.069Z,15.38
2023-04-08T10:15:43.724Z,15.28
2023-04-08T10:16:43.046Z,15.22
2023-04-08T10:17:43.110Z,15.87
2023-04-08T10:18:43.013Z,16.78
2023-04-08T10:19:43.041Z,17.69
2023-04-08T10:20:42.521Z,18.72
2023-04-08T10:21:42.955Z,19.56
2023-04-08T10:22:42.977Z,19.73
2023-04-08T10:23:42.944Z,19.49
2023-04-08T10:24:42.932Z,20.01
2023-04-08T10:25:42.919Z,20.43
2023-04-08T10:26:43.134Z,20.42
2023-04-08T10:27:42.901Z,20.15
2023-04-08T10:28:42.348Z,19.45
2023-04-08T10:29:42.858Z,19.11
2023-04-08T10:30:42.852Z,19.28
2023-04-08T10:31:42.837Z,19.98
2023-04-08T10:32:42.849Z,19.53
2023-04-08T10:33:42.822Z,18.62
2023-04-08T10:34:42.058Z,18.78
2023-04-08T10:35:42.850Z,19.18
2023-04-08T10:36:42.039Z,19.07
2023-04-08T10:37:42.061Z,19.44
2023-04-08T10:38:42.829Z,19.75
2023-04-08T10:39:42.719Z,19.50
2023-04-08T10:40:42.802Z,19.09
2023-04-08T10:41:42.691Z,18.49
2023-04-08T10:42:42.666Z,17.77
2023-04-08T10:43:42.680Z,17.30
2023-04-08T10:44:41.920Z,17.19
2023-04-08T10:45:42.092Z,17.32
2023-04-08T10:46:42.663Z,17.36
2023-04-08T10:47:42.627Z,17.81
2023-04-08T10:48:42.659Z,18.18
2023-04-08T10:49:42.601Z,17.79
2023-04-08T10:50:42.573Z,17.31
2023-04-08T10:51:42.563Z,17.04
2023-04-08T10:52:41.819Z,16.79
2023-04-08T10:53:42.076Z,16.50
2023-04-08T10:54:42.535Z,16.11
2023-04-08T10:55:42.507Z,15.90
2023-04-08T10:56:42.492Z,15.80
2023-04-08T10:57:42.463Z,15.59
2023-04-08T10:58:42.459Z,15.41
2023-04-08T10:59:42.464Z,15.36
2023-04-08T11:00:42.073Z,15.27
2023-04-08T11:01:42.151Z,15.19
2023-04-08T11:02:42.480Z,15.13
2023-04-08T11:03:42.525Z,15.40
2023-04-08T11:04:43.102Z,15.69
2023-04-08T11:05:42.404Z,15.73
2023-04-08T11:06:42.368Z,15.68
2023-04-08T11:07:42.320Z,15.81
2023-04-08T11:08:42.340Z,16.66
2023-04-08T11:09:42.314Z,17.73
2023-04-08T11:10:42.313Z,18.77
2023-04-08T11:11:42.290Z,19.59
2023-04-08T11:12:42.262Z,19.97
2023-04-08T11:13:51.261Z,20.26
2023-04-08T11:14:43.254Z,19.92
2023-04-08T11:15:42.277Z,20.31
2023-04-08T11:16:41.513Z,20.84
2023-04-08T11:17:42.206Z,20.51
2023-04-08T11:18:42.869Z,19.75
2023-04-08T11:19:42.219Z,18.95
2023-04-08T11:20:42.395Z,18.32
2023-04-08T11:21:42.184Z,17.38
2023-04-08T11:22:42.112Z,16.58
2023-04-08T11:23:42.825Z,15.92
2023-04-08T11:24:42.133Z,15.70
2023-04-08T11:25:42.138Z,15.54
2023-04-08T11:26:42.115Z,15.39
2023-04-08T11:27:42.079Z,15.29
2023-04-08T11:28:42.308Z,15.09
2023-04-08T11:29:42.132Z,15.00
2023-04-08T11:30:42.710Z,15.00
2023-04-08T11:31:42.052Z,14.98
2023-04-08T11:32:42.754Z,14.96
2023-04-08T11:33:42.001Z,14.98
2023-04-08T11:34:42.001Z,14.97
2023-04-08T11:35:42.017Z,14.94
2023-04-08T11:36:42.187Z,14.86
2023-04-08T11:37:41.944Z,14.80
2023-04-08T11:38:41.943Z,14.74
2023-04-08T11:39:41.900Z,14.78
2023-04-08T11:40:41.912Z,14.87
2023-04-08T11:41:41.585Z,14.90
2023-04-08T11:42:42.119Z,14.94
2023-04-08T11:43:41.654Z,14.99
2023-04-08T11:44:41.833Z,15.02
2023-04-08T11:45:41.594Z,14.98
2023-04-08T11:46:41.657Z,14.93
2023-04-08T11:47:41.594Z,14.91
2023-04-08T11:48:41.366Z,14.83
2023-04-08T11:49:41.619Z,14.86
2023-04-08T11:50:41.754Z,14.95
2023-04-08T11:51:41.586Z,15.03
2023-04-08T11:52:41.716Z,15.09
2023-04-08T11:53:41.216Z,15.14
2023-04-08T11:54:41.734Z,15.15
2023-04-08T11:55:41.594Z,15.16
2023-04-08T11:56:41.618Z,15.03
2023-04-08T11:57:41.591Z,14.95
2023-04-08T11:58:41.648Z,14.98
2023-04-08T11:59:40.935Z,14.98
2023-04-08T12:00:42.313Z,14.91
2023-04-08T12:01:41.637Z,14.85
2023-04-08T12:02:41.624Z,14.75
2023-04-08T12:03:41.155Z,14.68
2023-04-08T12:04:41.634Z,14.55
2023-04-08T12:05:41.091Z,14.48
2023-04-08T12:06:41.568Z,14.45
2023-04-08T12:07:41.540Z,14.43
2023-04-08T12:08:41.494Z,14.32
2023-04-08T12:09:41.514Z,14.24
2023-04-08T12:10:41.729Z,14.19
2023-04-08T12:11:41.510Z,14.21
2023-04-08T12:12:42.135Z,14.27
2023-04-08T12:13:41.431Z,14.28
2023-04-08T12:14:41.437Z,14.29
2023-04-08T12:15:41.438Z,14.31
2023-04-08T12:16:42.388Z,14.33
2023-04-08T12:17:42.158Z,14.32
2023-04-08T12:18:42.112Z,14.33
2023-04-08T12:19:41.374Z,14.36
2023-04-08T12:20:42.082Z,14.41
2023-04-08T12:21:41.341Z,14.43
2023-04-08T12:22:41.329Z,14.45
2023-04-08T12:23:41.328Z,14.51
2023-04-08T12:24:41.300Z,14.57
2023-04-08T12:25:41.968Z,14.66
2023-04-08T12:26:41.299Z,14.78
2023-04-08T12:27:41.265Z,14.84
2023-04-08T12:28:41.211Z,14.90
2023-04-08T12:29:41.227Z,14.98
2023-04-08T12:30:41.032Z,15.13
2023-04-08T12:31:41.273Z,15.31
2023-04-08T12:32:41.284Z,15.45
2023-04-08T12:33:41.879Z,15.53
2023-04-08T12:34:41.154Z,15.68
2023-04-08T12:35:40.716Z,15.79
2023-04-08T12:36:41.868Z,16.02
2023-04-08T12:37:41.117Z,16.03
2023-04-08T12:38:41.077Z,16.06
2023-04-08T12:39:41.114Z,16.13
2023-04-08T12:40:41.094Z,16.12
2023-04-08T12:41:41.293Z,16.01
2023-04-08T12:42:41.744Z,15.96
2023-04-08T12:43:41.015Z,15.87
2023-04-08T12:44:41.025Z,15.77
2023-04-08T12:45:41.013Z,15.62
2023-04-08T12:46:41.066Z,15.45
2023-04-08T12:47:41.076Z,15.26
2023-04-08T12:48:41.080Z,15.25
2023-04-08T12:50:40.968Z,15.27
2023-04-08T12:51:40.949Z,15.29
2023-04-08T12:52:40.952Z,15.35
2023-04-08T12:53:40.191Z,15.39
2023-04-08T12:54:40.890Z,15.41
2023-04-08T12:55:43.160Z,15.37
2023-04-08T12:56:40.875Z,15.34
2023-04-08T12:57:40.852Z,15.33
2023-04-08T12:58:40.846Z,15.30
2023-04-08T12:59:40.244Z,15.15
2023-04-08T13:00:40.841Z,15.02
2023-04-08T13:01:40.807Z,14.87
2023-04-08T13:02:40.855Z,14.78
2023-04-08T13:03:40.834Z,14.60
2023-04-08T13:04:40.759Z,14.47
2023-04-08T13:05:43.605Z,14.40
2023-04-08T13:06:40.731Z,14.37
2023-04-08T13:07:40.168Z,14.32
2023-04-08T13:08:40.669Z,14.29